Time;durP1;ratioP1;P1;durP2;ratioP2;P2;SDS_P1;SDS_P2;PMS_P1;PMS_P2;Temp;Humidity;BMP_temperature;BMP_pressure;BME280_temperature;BME280_humidity;BME280_pressure;Samples;Min_cycle;Max_cycle;Signal;HPM_P1;HPM_P2
2021/01/18 00:00:57;;;;;;;17.83;9.23;;;0.10;99.90;;;;;;4970423;28;20192;-82
2021/01/18 00:03:23;;;;;;;17.77;10.10;;;0.10;99.90;;;;;;4954071;28;20179;-82
2021/01/18 00:05:49;;;;;;;18.43;9.10;;;0.10;99.90;;;;;;4972104;28;20250;-82
2021/01/18 00:08:14;;;;;;;19.07;9.73;;;0.00;99.90;;;;;;4953409;28;20261;-82
2021/01/18 00:10:40;;;;;;;14.07;8.30;;;0.00;99.90;;;;;;4954782;28;20179;-82
2021/01/18 00:13:06;;;;;;;24.40;9.17;;;0.00;99.90;;;;;;4970559;28;20194;-81
2021/01/18 00:15:32;;;;;;;20.30;10.00;;;0.10;99.90;;;;;;4969772;28;20202;-81
2021/01/18 00:17:57;;;;;;;17.80;8.17;;;0.00;99.90;;;;;;4953838;28;20438;-81
2021/01/18 00:20:23;;;;;;;17.37;9.50;;;0.00;99.90;;;;;;4954858;28;20427;-82
2021/01/18 00:22:50;;;;;;;22.27;9.65;;;0.00;99.90;;;;;;4972803;28;20179;-81
2021/01/18 00:25:20;;;;;;;22.88;8.60;;;-0.10;99.90;;;;;;4991649;28;20286;-81
2021/01/18 00:27:45;;;;;;;14.95;8.30;;;0.00;99.90;;;;;;4991431;28;20175;-81
2021/01/18 00:30:22;;;;;;;14.60;9.40;;;-0.10;99.90;;;;;;4974520;28;20199;-81
2021/01/18 00:32:49;;;;;;;16.77;9.38;;;-0.10;99.90;;;;;;4975552;28;20176;-83
2021/01/18 00:35:16;;;;;;;20.58;10.18;;;-0.10;99.90;;;;;;4958953;28;20211;-80
2021/01/18 00:37:44;;;;;;;12.02;7.90;;;0.00;99.90;;;;;;4971659;28;20239;-80
2021/01/18 00:40:14;;;;;;;16.05;8.88;;;-0.20;99.90;;;;;;4991465;28;20174;-80
2021/01/18 00:42:42;;;;;;;18.58;8.00;;;-0.20;99.90;;;;;;4973717;28;20258;-80
2021/01/18 00:45:10;;;;;;;26.20;9.32;;;-0.20;99.90;;;;;;4971876;28;20286;-80
2021/01/18 00:47:47;;;;;;;15.68;9.48;;;-0.20;99.90;;;;;;4957677;28;20276;-81
2021/01/18 00:50:18;;;;;;;23.23;10.18;;;-0.20;99.90;;;;;;4974352;28;20199;-81
2021/01/18 00:52:46;;;;;;;17.25;9.02;;;-0.20;99.90;;;;;;4991044;28;20168;-81
2021/01/18 00:55:16;;;;;;;26.17;10.85;;;-0.20;99.90;;;;;;4991341;28;20231;-80
2021/01/18 00:57:46;;;;;;;20.30;9.25;;;-0.10;99.90;;;;;;4959214;28;20677;-81
2021/01/18 01:00:15;;;;;;;17.15;10.57;;;-0.20;99.90;;;;;;4958577;28;20207;-80
2021/01/18 01:02:48;;;;;;;20.35;10.23;;;-0.30;99.90;;;;;;4973802;28;20182;-80
2021/01/18 01:05:19;;;;;;;23.60;9.75;;;-0.30;99.90;;;;;;4973643;28;20217;-80
2021/01/18 01:07:47;;;;;;;14.77;8.60;;;-0.30;99.90;;;;;;4991255;28;20184;-80
2021/01/18 01:10:16;;;;;;;20.50;8.75;;;-0.20;99.90;;;;;;4972467;28;20174;-80
2021/01/18 01:12:42;;;;;;;13.60;7.53;;;-0.30;99.90;;;;;;4990326;28;20175;-80
2021/01/18 01:15:09;;;;;;;22.77;10.60;;;-0.30;99.90;;;;;;4973743;28;20267;-80
2021/01/18 01:17:46;;;;;;;20.85;10.55;;;-0.30;99.90;;;;;;4973622;28;20180;-79
2021/01/18 01:20:13;;;;;;;22.13;11.30;;;-0.40;99.90;;;;;;4990481;28;20163;-80
2021/01/18 01:22:40;;;;;;;15.30;8.70;;;-0.40;99.90;;;;;;4988145;28;20184;-79
2021/01/18 01:25:07;;;;;;;19.33;10.13;;;-0.40;99.90;;;;;;4989673;28;20219;-80
2021/01/18 01:27:32;;;;;;;17.98;8.82;;;-0.50;99.90;;;;;;4972353;28;20183;-79
2021/01/18 01:29:58;;;;;;;19.07;9.63;;;-0.50;99.90;;;;;;4952688;28;20219;-78
2021/01/18 01:32:24;;;;;;;22.07;10.23;;;-0.50;99.90;;;;;;4967670;28;20175;-79
2021/01/18 01:34:49;;;;;;;20.23;9.57;;;-0.60;99.90;;;;;;4985416;28;20489;-79
2021/01/18 01:37:15;;;;;;;24.33;8.93;;;-0.50;99.90;;;;;;4989400;28;20383;-79
2021/01/18 01:39:41;;;;;;;23.00;9.33;;;-0.60;99.90;;;;;;4975376;28;20175;-80
2021/01/18 01:42:27;;;;;;;15.00;9.05;;;-0.60;99.90;;;;;;4974696;28;20175;-80
2021/01/18 01:44:53;;;;;;;19.30;10.52;;;-0.60;99.90;;;;;;4958465;28;20216;-80
2021/01/18 01:47:39;;;;;;;19.17;9.73;;;-0.60;99.90;;;;;;4974226;28;20259;-79
2021/01/18 01:50:10;;;;;;;19.67;9.52;;;-0.60;99.90;;;;;;4955816;28;20198;-80
2021/01/18 01:52:42;;;;;;;19.75;8.68;;;-0.60;99.90;;;;;;4957687;28;20171;-80
2021/01/18 01:55:14;;;;;;;22.02;11.25;;;-0.60;99.90;;;;;;4973732;28;20198;-80
2021/01/18 01:57:40;;;;;;;19.67;9.38;;;-0.60;99.90;;;;;;4956538;28;20367;-79
2021/01/18 02:00:06;;;;;;;21.67;9.33;;;-0.60;99.90;;;;;;4958149;28;20183;-81
2021/01/18 02:02:32;;;;;;;20.20;10.10;;;-0.60;99.90;;;;;;4961379;28;20182;-79
2021/01/18 02:04:58;;;;;;;12.20;8.27;;;-0.60;99.90;;;;;;4952984;28;20208;-80
2021/01/18 02:07:28;;;;;;;21.88;8.45;;;-0.50;99.90;;;;;;4953708;28;20185;-81
2021/01/18 02:09:56;;;;;;;22.17;10.20;;;-0.60;99.90;;;;;;4951694;29;20251;-81
2021/01/18 02:12:24;;;;;;;15.38;8.30;;;-0.70;99.90;;;;;;4961537;28;20190;-81
2021/01/18 02:15:18;;;;;;;19.65;9.75;;;-0.70;99.90;;;;;;4955461;28;20203;-80
2021/01/18 02:18:09;;;;;;;22.52;10.95;;;-0.70;99.90;;;;;;4967977;28;20180;-80
2021/01/18 02:21:01;;;;;;;20.67;9.82;;;-0.80;99.90;;;;;;4956914;28;20258;-80
2021/01/18 02:23:39;;;;;;;21.35;10.60;;;-0.80;99.90;;;;;;4971375;28;20200;-81
2021/01/18 02:26:50;;;;;;;17.40;10.30;;;-0.80;99.90;;;;;;4969219;28;20219;-80
2021/01/18 02:29:16;;;;;;;15.27;9.00;;;-0.90;99.90;;;;;;4956325;28;20219;-80
2021/01/18 02:32:02;;;;;;;21.17;9.77;;;-0.90;99.90;;;;;;4986678;28;20176;-81
2021/01/18 02:34:56;;;;;;;23.15;9.70;;;-0.80;99.90;;;;;;4970080;28;20171;-80
2021/01/18 02:38:01;;;;;;;18.98;9.32;;;-0.80;99.90;;;;;;4970651;28;20250;-80
2021/01/18 02:40:54;;;;;;;19.55;11.43;;;-0.90;99.90;;;;;;4985345;28;20211;-80
2021/01/18 02:43:25;;;;;;;22.95;10.05;;;-0.80;99.90;;;;;;4973878;28;20175;-81
2021/01/18 02:45:52;;;;;;;15.30;9.02;;;-0.80;99.90;;;;;;4970228;28;20198;-80
2021/01/18 02:48:19;;;;;;;18.02;9.15;;;-0.80;99.90;;;;;;4970902;28;20206;-80
2021/01/18 02:50:46;;;;;;;16.27;10.32;;;-0.90;99.90;;;;;;4955047;28;20180;-81
2021/01/18 02:53:13;;;;;;;24.45;11.07;;;-0.90;99.90;;;;;;4971483;28;20183;-80
2021/01/18 02:55:39;;;;;;;20.98;10.98;;;-0.90;99.90;;;;;;4970456;28;20290;-80
2021/01/18 02:58:09;;;;;;;19.53;9.03;;;-0.90;99.90;;;;;;4955456;28;20202;-80
2021/01/18 03:01:03;;;;;;;20.50;11.30;;;-0.80;99.90;;;;;;4988597;28;20183;-80
2021/01/18 03:03:53;;;;;;;19.25;10.40;;;-0.80;99.90;;;;;;4988367;28;20182;-81
2021/01/18 03:06:27;;;;;;;21.08;10.00;;;-0.80;99.90;;;;;;4971436;28;20698;-80
2021/01/18 03:09:01;;;;;;;18.77;9.48;;;-0.70;99.90;;;;;;4989785;28;20194;-80
2021/01/18 03:11:34;;;;;;;19.85;10.80;;;-0.70;99.90;;;;;;4952932;29;20168;-80
2021/01/18 03:14:28;;;;;;;18.75;11.13;;;-0.90;99.90;;;;;;4978426;28;20198;-79
2021/01/18 03:16:57;;;;;;;23.55;12.93;;;-0.70;99.90;;;;;;4985208;28;20195;-79
2021/01/18 03:19:40;;;;;;;17.40;9.73;;;-0.70;99.90;;;;;;4971432;28;20179;-79
2021/01/18 03:22:07;;;;;;;23.95;10.75;;;-0.70;99.90;;;;;;4968862;28;20195;-79
2021/01/18 03:24:32;;;;;;;27.88;10.95;;;-0.50;99.90;;;;;;4947262;28;20187;-79
2021/01/18 03:27:05;;;;;;;17.07;10.40;;;-0.60;99.90;;;;;;4985877;28;20182;-80
2021/01/18 03:29:33;;;;;;;19.92;9.40;;;-0.60;99.90;;;;;;4954673;28;20210;-79
2021/01/18 03:31:59;;;;;;;39.80;12.32;;;-0.60;99.90;;;;;;4971058;28;20191;-79
2021/01/18 03:34:24;;;;;;;17.43;10.60;;;-0.70;99.90;;;;;;4957607;28;20180;-80
2021/01/18 03:36:50;;;;;;;21.67;10.80;;;-0.60;99.90;;;;;;4956854;28;20215;-80
2021/01/18 03:39:16;;;;;;;21.90;9.33;;;-0.60;99.90;;;;;;4956537;28;20227;-80
2021/01/18 03:41:44;;;;;;;23.00;11.17;;;-0.60;99.90;;;;;;4956269;28;20457;-80
2021/01/18 03:44:11;;;;;;;27.50;11.32;;;-0.60;99.90;;;;;;4973193;28;20179;-80
2021/01/18 03:46:37;;;;;;;13.85;9.07;;;-0.60;99.90;;;;;;4957196;28;20207;-80
2021/01/18 03:49:03;;;;;;;16.60;8.87;;;-0.60;99.90;;;;;;4972885;28;20821;-80
2021/01/18 03:51:30;;;;;;;22.77;10.13;;;-0.50;99.90;;;;;;4989914;28;20179;-80
2021/01/18 03:53:57;;;;;;;21.88;11.65;;;-0.50;99.90;;;;;;4989794;28;20199;-80
2021/01/18 03:56:22;;;;;;;24.70;11.52;;;-0.50;99.90;;;;;;4972873;28;20194;-80
2021/01/18 03:58:48;;;;;;;17.47;9.80;;;-0.60;99.90;;;;;;4973857;28;20179;-80
2021/01/18 04:01:14;;;;;;;24.67;10.50;;;-0.70;99.90;;;;;;4975682;28;20215;-80
2021/01/18 04:03:41;;;;;;;15.83;9.17;;;-0.60;99.90;;;;;;4958701;28;20301;-80
2021/01/18 04:06:07;;;;;;;18.80;9.50;;;-0.70;99.90;;;;;;4957877;28;20242;-80
2021/01/18 04:08:32;;;;;;;20.90;10.23;;;-0.70;99.90;;;;;;4958085;28;20218;-80
2021/01/18 04:10:58;;;;;;;26.97;11.10;;;-0.70;99.90;;;;;;4957818;28;20172;-79
2021/01/18 04:13:24;;;;;;;20.60;10.90;;;-0.70;99.90;;;;;;4974813;28;20183;-80
2021/01/18 04:15:49;;;;;;;17.03;9.20;;;-0.70;99.90;;;;;;4958323;28;20200;-80
2021/01/18 04:18:15;;;;;;;28.60;10.40;;;-0.70;99.90;;;;;;4959347;28;20265;-80
2021/01/18 04:20:40;;;;;;;24.73;10.10;;;-0.60;99.90;;;;;;4958787;28;20180;-80
2021/01/18 04:23:06;;;;;;;30.63;11.03;;;-0.60;99.90;;;;;;4973122;28;20184;-80
2021/01/18 04:25:32;;;;;;;22.50;11.50;;;-0.60;99.90;;;;;;4972957;28;20299;-80
2021/01/18 04:28:00;;;;;;;23.53;11.60;;;-0.60;99.90;;;;;;4957724;28;20183;-80
2021/01/18 04:30:28;;;;;;;26.65;11.77;;;-0.60;99.90;;;;;;4957637;28;20183;-80
2021/01/18 04:32:59;;;;;;;28.55;10.20;;;-0.60;99.90;;;;;;4957666;28;20267;-80
2021/01/18 04:35:25;;;;;;;26.25;10.27;;;-0.60;99.90;;;;;;4974018;28;20266;-80
2021/01/18 04:37:52;;;;;;;25.73;11.10;;;-0.60;99.90;;;;;;4973862;28;20184;-80
2021/01/18 04:40:20;;;;;;;21.55;11.05;;;-0.70;99.90;;;;;;4990727;28;20210;-81
2021/01/18 04:42:46;;;;;;;26.52;11.35;;;-0.80;99.90;;;;;;4970572;28;20175;-80
2021/01/18 04:45:15;;;;;;;27.83;11.95;;;-0.80;99.90;;;;;;4948156;28;20346;-80
2021/01/18 04:47:43;;;;;;;21.08;9.93;;;-0.70;99.90;;;;;;4950640;28;20176;-80
2021/01/18 04:50:10;;;;;;;28.05;13.43;;;-0.70;99.90;;;;;;4979799;28;20174;-80
2021/01/18 04:52:45;;;;;;;22.48;10.52;;;-0.60;99.90;;;;;;4973606;28;20210;-79
2021/01/18 04:55:26;;;;;;;30.33;12.60;;;-0.70;99.90;;;;;;4973850;28;20254;-80
2021/01/18 04:58:11;;;;;;;24.33;10.23;;;-0.60;99.90;;;;;;4974262;28;20214;-80
2021/01/18 05:00:47;;;;;;;28.27;11.15;;;-0.70;99.90;;;;;;4991996;28;20171;-80
2021/01/18 05:03:24;;;;;;;19.27;11.23;;;-0.70;99.90;;;;;;4973815;28;20179;-79
2021/01/18 05:06:17;;;;;;;20.25;9.32;;;-0.70;99.90;;;;;;4956753;28;20217;-79
2021/01/18 05:09:07;;;;;;;23.48;10.73;;;-0.60;99.90;;;;;;4968757;28;20698;-79
2021/01/18 05:11:34;;;;;;;19.30;10.23;;;-0.50;99.90;;;;;;4968508;28;20187;-78
2021/01/18 05:14:00;;;;;;;24.52;11.93;;;-0.50;99.90;;;;;;4989230;28;20181;-80
2021/01/18 05:16:35;;;;;;;26.00;12.85;;;-0.50;99.90;;;;;;4956594;28;20709;-80
2021/01/18 05:19:12;;;;;;;25.50;11.68;;;-0.50;99.90;;;;;;4972149;28;20183;-79
2021/01/18 05:21:42;;;;;;;21.05;9.82;;;-0.50;99.90;;;;;;4971386;28;20198;-80
2021/01/18 05:24:09;;;;;;;24.70;10.00;;;-0.50;99.90;;;;;;4972406;28;20183;-80
2021/01/18 05:26:36;;;;;;;28.08;11.70;;;-0.50;99.90;;;;;;4988933;28;20230;-80
2021/01/18 05:29:03;;;;;;;25.05;11.20;;;-0.40;99.90;;;;;;4971313;28;20198;-80
2021/01/18 05:31:32;;;;;;;20.73;11.45;;;-0.40;99.90;;;;;;4971347;28;20179;-79
2021/01/18 05:33:59;;;;;;;23.85;10.23;;;-0.40;99.90;;;;;;4990752;28;20257;-79
2021/01/18 05:36:43;;;;;;;20.65;11.70;;;-0.40;99.90;;;;;;4971496;28;20199;-79
2021/01/18 05:39:17;;;;;;;26.08;11.98;;;-0.30;99.90;;;;;;4971284;28;20563;-78
2021/01/18 05:41:47;;;;;;;26.38;11.60;;;-0.40;99.90;;;;;;4972213;28;20180;-79
2021/01/18 05:44:13;;;;;;;20.98;11.57;;;-0.50;99.90;;;;;;4976492;28;20203;-79
2021/01/18 05:46:44;;;;;;;21.33;9.50;;;-0.40;99.90;;;;;;4958762;28;20214;-79
2021/01/18 05:49:11;;;;;;;18.58;11.13;;;-0.40;99.90;;;;;;4990658;28;20195;-79
2021/01/18 05:51:38;;;;;;;29.75;11.27;;;-0.40;99.90;;;;;;4973947;28;20203;-79
2021/01/18 05:54:06;;;;;;;25.83;12.77;;;-0.50;99.90;;;;;;4991352;28;20635;-79
2021/01/18 05:56:43;;;;;;;21.23;11.40;;;-0.40;99.90;;;;;;4973630;28;20192;-79
2021/01/18 05:59:20;;;;;;;16.75;10.38;;;-0.40;99.90;;;;;;4972711;28;20183;-79
2021/01/18 06:01:48;;;;;;;20.25;11.00;;;-0.30;99.90;;;;;;4967535;28;20223;-79
2021/01/18 06:04:21;;;;;;;24.60;11.55;;;-0.30;99.90;;;;;;4951143;28;20625;-79
2021/01/18 06:06:58;;;;;;;25.42;12.35;;;-0.30;99.90;;;;;;4981601;28;20201;-79
2021/01/18 06:09:42;;;;;;;25.92;11.52;;;-0.40;99.90;;;;;;4963255;28;20342;-79
2021/01/18 06:12:24;;;;;;;32.72;13.98;;;-0.30;99.90;;;;;;4965433;28;20222;-79
2021/01/18 06:15:05;;;;;;;27.80;12.68;;;-0.30;99.90;;;;;;4967998;28;20621;-79
2021/01/18 06:17:31;;;;;;;22.45;11.35;;;-0.30;99.90;;;;;;4989375;28;20171;-79
2021/01/18 06:19:59;;;;;;;28.08;12.15;;;-0.30;99.90;;;;;;4954882;28;20214;-80
2021/01/18 06:22:28;;;;;;;29.02;12.77;;;-0.30;99.90;;;;;;4968115;28;20243;-80
2021/01/18 06:25:09;;;;;;;22.65;11.10;;;-0.30;99.90;;;;;;4985365;28;20234;-80
2021/01/18 06:27:35;;;;;;;23.13;9.45;;;-0.30;99.90;;;;;;4968288;28;20171;-79
2021/01/18 06:30:02;;;;;;;24.58;13.55;;;-0.30;99.90;;;;;;4983347;28;20282;-80
2021/01/18 06:32:30;;;;;;;19.20;10.85;;;-0.30;99.90;;;;;;4965372;28;20176;-81
2021/01/18 06:35:03;;;;;;;22.85;13.45;;;-0.30;99.90;;;;;;4965866;28;20195;-81
2021/01/18 06:37:31;;;;;;;22.63;9.15;;;-0.30;99.90;;;;;;4967819;28;20171;-81
2021/01/18 06:40:05;;;;;;;23.52;10.95;;;-0.30;99.90;;;;;;4987201;28;20191;-81
2021/01/18 06:42:31;;;;;;;23.23;12.50;;;-0.30;99.90;;;;;;4969417;28;20179;-80
2021/01/18 06:44:57;;;;;;;28.50;12.45;;;-0.20;99.90;;;;;;4972826;28;20187;-80
2021/01/18 06:47:33;;;;;;;22.97;11.73;;;-0.20;99.90;;;;;;4971715;28;20210;-80
2021/01/18 06:50:02;;;;;;;21.88;10.20;;;-0.20;99.90;;;;;;4971459;28;20206;-80
2021/01/18 06:52:30;;;;;;;20.65;11.00;;;-0.20;99.90;;;;;;4982565;28;20254;-80
2021/01/18 06:55:07;;;;;;;32.45;12.65;;;-0.30;99.90;;;;;;4950393;28;20206;-84
2021/01/18 06:57:45;;;;;;;24.42;11.68;;;-0.20;99.90;;;;;;4959863;28;20258;-83
2021/01/18 07:00:18;;;;;;;20.77;11.20;;;-0.30;99.90;;;;;;4959617;28;20182;-83
2021/01/18 07:02:57;;;;;;;20.85;10.90;;;-0.20;99.90;;;;;;4959081;28;20179;-83
2021/01/18 07:05:35;;;;;;;25.33;12.38;;;-0.20;99.90;;;;;;4976382;28;20206;-82
2021/01/18 07:08:16;;;;;;;18.00;10.52;;;-0.20;99.90;;;;;;4976443;28;20545;-83
2021/01/18 07:10:50;;;;;;;21.73;10.35;;;-0.20;99.90;;;;;;4980861;28;20266;-79
2021/01/18 07:13:20;;;;;;;29.00;13.27;;;-0.20;99.90;;;;;;4982410;28;20259;-80
2021/01/18 07:15:50;;;;;;;28.23;12.10;;;-0.20;99.90;;;;;;4946067;28;20203;-79
2021/01/18 07:18:16;;;;;;;23.58;11.70;;;-0.30;99.90;;;;;;4963547;28;20180;-79
2021/01/18 07:20:47;;;;;;;30.17;12.35;;;-0.30;99.90;;;;;;4980956;28;20211;-79
2021/01/18 07:23:15;;;;;;;29.48;13.13;;;-0.20;99.90;;;;;;4981082;28;20195;-79
2021/01/18 07:25:45;;;;;;;29.70;11.93;;;-0.20;99.90;;;;;;4982591;28;20195;-79
2021/01/18 07:28:20;;;;;;;25.45;11.32;;;-0.20;99.90;;;;;;4947396;28;20199;-81
2021/01/18 07:30:48;;;;;;;20.50;11.25;;;-0.10;99.90;;;;;;4961434;28;20177;-81
2021/01/18 07:33:16;;;;;;;18.85;9.13;;;0.40;99.90;;;;;;4947343;28;20188;-80
2021/01/18 07:35:43;;;;;;;31.52;13.65;;;0.50;99.90;;;;;;4947685;28;20199;-80
2021/01/18 07:38:13;;;;;;;21.30;11.75;;;0.80;99.90;;;;;;4952896;28;20187;-80
2021/01/18 07:40:39;;;;;;;20.13;11.38;;;0.70;99.90;;;;;;4956987;28;20174;-81
2021/01/18 07:43:32;;;;;;;22.10;10.75;;;0.60;99.90;;;;;;4962106;28;20179;-80
2021/01/18 07:46:29;;;;;;;26.00;11.88;;;0.60;99.90;;;;;;4978278;28;20188;-79
2021/01/18 07:49:13;;;;;;;24.02;12.60;;;0.50;99.90;;;;;;4977499;28;20282;-79
2021/01/18 07:51:38;;;;;;;26.10;14.02;;;0.30;99.90;;;;;;4963456;28;20179;-79
2021/01/18 07:54:04;;;;;;;21.67;10.77;;;0.10;99.90;;;;;;4961453;28;20183;-79
2021/01/18 07:56:31;;;;;;;31.17;13.87;;;0.00;99.90;;;;;;4977358;28;20183;-79
2021/01/18 07:58:58;;;;;;;25.75;13.43;;;0.00;99.90;;;;;;4939582;28;20435;-79
2021/01/18 08:01:36;;;;;;;29.15;11.13;;;0.00;99.90;;;;;;4966741;28;20188;-79
2021/01/18 08:04:25;;;;;;;24.60;11.18;;;0.10;99.90;;;;;;4967506;28;20189;-80
2021/01/18 08:07:09;;;;;;;22.05;11.38;;;0.00;99.90;;;;;;4968024;28;20214;-80
2021/01/18 08:09:36;;;;;;;22.63;12.52;;;0.00;99.90;;;;;;4949042;29;20275;-80
2021/01/18 08:12:34;;;;;;;25.45;12.18;;;0.00;99.90;;;;;;4927896;28;20203;-80
2021/01/18 08:15:10;;;;;;;28.27;12.07;;;0.00;99.90;;;;;;4977278;28;20211;-80
2021/01/18 08:17:36;;;;;;;20.85;11.45;;;0.00;99.90;;;;;;4978885;28;20179;-78
2021/01/18 08:20:15;;;;;;;22.30;11.13;;;0.00;99.90;;;;;;4959862;28;20179;-79
2021/01/18 08:22:41;;;;;;;25.08;12.45;;;0.00;99.90;;;;;;4965167;28;20190;-79
2021/01/18 08:25:07;;;;;;;21.80;10.87;;;0.00;99.90;;;;;;4960265;28;20695;-79
2021/01/18 08:27:41;;;;;;;28.38;10.80;;;0.10;99.90;;;;;;4961267;28;20422;-79
2021/01/18 08:30:27;;;;;;;23.48;11.45;;;0.10;99.90;;;;;;4976885;28;20203;-78
2021/01/18 08:32:59;;;;;;;25.98;12.48;;;0.00;99.90;;;;;;4961435;28;20176;-79
2021/01/18 08:35:31;;;;;;;25.50;11.45;;;0.10;99.90;;;;;;4962611;28;20256;-79
2021/01/18 08:38:07;;;;;;;32.10;14.10;;;0.10;99.90;;;;;;4960937;28;20179;-80
2021/01/18 08:41:08;;;;;;;16.55;9.45;;;0.20;99.90;;;;;;4979057;28;20504;-79
2021/01/18 08:43:51;;;;;;;27.52;14.43;;;0.20;99.90;;;;;;4963571;28;20175;-81
2021/01/18 08:46:37;;;;;;;19.60;11.85;;;0.30;99.90;;;;;;4983625;28;20267;-80
2021/01/18 08:49:27;;;;;;;24.63;13.00;;;0.30;99.90;;;;;;4983362;28;20199;-80
2021/01/18 08:51:53;;;;;;;36.15;15.48;;;0.30;99.90;;;;;;4983583;28;20175;-80
2021/01/18 08:54:38;;;;;;;23.40;13.10;;;0.30;99.90;;;;;;4965111;28;20167;-80
2021/01/18 08:57:24;;;;;;;20.55;11.57;;;0.30;99.90;;;;;;4965951;28;20419;-80
2021/01/18 09:00:09;;;;;;;24.65;12.43;;;0.30;99.90;;;;;;4965168;28;20194;-80
2021/01/18 09:02:36;;;;;;;31.75;12.60;;;0.40;99.90;;;;;;4983467;28;20167;-80
2021/01/18 09:05:18;;;;;;;29.02;14.45;;;0.30;99.90;;;;;;4964971;28;20199;-81
2021/01/18 09:07:45;;;;;;;27.25;12.82;;;0.40;99.90;;;;;;4982705;28;20550;-80
2021/01/18 09:10:13;;;;;;;24.58;12.32;;;0.30;99.90;;;;;;4965249;28;20214;-80
2021/01/18 09:12:40;;;;;;;27.40;12.75;;;0.30;99.90;;;;;;4981946;28;20247;-80
2021/01/18 09:15:10;;;;;;;22.85;13.55;;;0.30;99.90;;;;;;4964160;28;20195;-79
2021/01/18 09:17:36;;;;;;;27.33;14.27;;;0.30;99.90;;;;;;4981911;28;20183;-80
2021/01/18 09:20:04;;;;;;;23.60;12.20;;;0.20;99.90;;;;;;4967887;28;20179;-80
2021/01/18 09:22:32;;;;;;;35.15;15.65;;;0.30;99.90;;;;;;4988447;28;20180;-78
2021/01/18 09:24:58;;;;;;;29.75;14.05;;;0.40;99.90;;;;;;4976833;28;20199;-79
2021/01/18 09:27:24;;;;;;;25.43;13.80;;;0.40;99.90;;;;;;4962122;28;20192;-80
2021/01/18 09:30:08;;;;;;;35.93;15.47;;;0.40;99.90;;;;;;5000051;28;20462;-79
2021/01/18 09:32:37;;;;;;;47.95;16.80;;;0.50;99.90;;;;;;4969527;28;20418;-80
2021/01/18 09:35:14;;;;;;;56.58;16.45;;;0.50;99.90;;;;;;4970398;28;20202;-79
2021/01/18 09:37:45;;;;;;;51.75;17.25;;;0.60;99.90;;;;;;4988341;28;20242;-81
2021/01/18 09:40:12;;;;;;;35.53;15.40;;;0.60;99.90;;;;;;4968392;28;20272;-80
2021/01/18 09:42:45;;;;;;;42.78;15.93;;;0.60;99.90;;;;;;4984018;28;20254;-80
2021/01/18 09:45:11;;;;;;;37.35;16.50;;;0.70;99.90;;;;;;4965664;28;20349;-81
2021/01/18 09:47:37;;;;;;;31.65;15.13;;;0.70;99.90;;;;;;4964902;28;20186;-80
2021/01/18 09:50:14;;;;;;;26.30;14.10;;;0.70;99.90;;;;;;4965156;28;20191;-80
2021/01/18 09:52:45;;;;;;;25.00;12.82;;;0.70;99.90;;;;;;4971811;28;20411;-81
2021/01/18 09:55:23;;;;;;;19.85;13.00;;;0.80;99.90;;;;;;4981293;28;20722;-80
2021/01/18 09:58:00;;;;;;;35.67;15.82;;;0.80;99.90;;;;;;4979186;28;20222;-79
2021/01/18 10:00:32;;;;;;;28.63;14.70;;;0.70;99.90;;;;;;4962138;28;20221;-79
2021/01/18 10:03:00;;;;;;;33.17;16.23;;;0.70;99.90;;;;;;4961447;28;20203;-80
2021/01/18 10:05:38;;;;;;;23.63;13.52;;;0.70;99.90;;;;;;4981591;28;20207;-80
2021/01/18 10:08:16;;;;;;;27.00;14.38;;;0.70;99.90;;;;;;4981496;28;20178;-80
2021/01/18 10:10:47;;;;;;;29.90;16.83;;;0.70;99.90;;;;;;4959511;28;20324;-81
2021/01/18 10:13:18;;;;;;;25.20;13.52;;;0.70;99.90;;;;;;4960066;28;20269;-81
2021/01/18 10:15:45;;;;;;;31.48;12.85;;;0.70;99.90;;;;;;4965403;28;20258;-80
2021/01/18 10:18:34;;;;;;;28.23;13.90;;;0.70;99.90;;;;;;4980696;28;20651;-80
2021/01/18 10:21:01;;;;;;;24.15;14.05;;;0.80;99.90;;;;;;4979324;28;20179;-79
2021/01/18 10:23:59;;;;;;;34.38;16.10;;;0.90;99.90;;;;;;4963143;28;20180;-80
2021/01/18 10:26:28;;;;;;;26.23;11.93;;;0.90;99.90;;;;;;4937449;28;20215;-80
2021/01/18 10:28:59;;;;;;;31.55;16.83;;;0.80;99.90;;;;;;4980865;28;20684;-79
2021/01/18 10:31:33;;;;;;;27.70;13.55;;;0.80;99.90;;;;;;4963962;28;20247;-80
2021/01/18 10:34:12;;;;;;;27.67;15.73;;;0.80;99.90;;;;;;4964304;28;20191;-80
2021/01/18 10:36:41;;;;;;;30.35;14.63;;;0.90;99.90;;;;;;4981292;28;20204;-81
2021/01/18 10:39:07;;;;;;;34.20;16.08;;;0.90;99.90;;;;;;4980313;28;20183;-80
2021/01/18 10:41:34;;;;;;;28.47;14.63;;;1.00;99.90;;;;;;4980450;28;20194;-80
2021/01/18 10:44:05;;;;;;;29.23;13.75;;;1.10;99.90;;;;;;4946393;28;20423;-80
2021/01/18 10:46:31;;;;;;;30.67;16.35;;;1.10;99.90;;;;;;4963290;28;20249;-80
2021/01/18 10:49:00;;;;;;;27.25;12.55;;;1.20;99.90;;;;;;4963235;28;20799;-80
2021/01/18 10:51:27;;;;;;;27.27;14.70;;;1.20;99.90;;;;;;4962925;28;20238;-80
2021/01/18 10:53:58;;;;;;;25.65;14.82;;;1.30;99.90;;;;;;4965044;28;20199;-81
2021/01/18 10:56:33;;;;;;;28.60;15.50;;;1.30;99.90;;;;;;4963306;28;20195;-80
2021/01/18 10:59:00;;;;;;;29.02;14.35;;;1.30;99.90;;;;;;4981861;28;20187;-81
2021/01/18 11:01:26;;;;;;;29.55;15.90;;;1.20;99.90;;;;;;4980628;28;20731;-79
2021/01/18 11:03:52;;;;;;;43.13;16.43;;;1.20;99.90;;;;;;4962640;28;20219;-79
2021/01/18 11:06:20;;;;;;;28.05;13.25;;;1.20;99.90;;;;;;4979088;28;20497;-80
2021/01/18 11:08:52;;;;;;;27.42;15.38;;;1.30;99.90;;;;;;4963669;28;20195;-80
2021/01/18 11:11:23;;;;;;;26.52;12.98;;;1.30;99.90;;;;;;4982871;28;20163;-80
2021/01/18 11:14:02;;;;;;;25.75;14.18;;;1.30;99.90;;;;;;4949030;28;20175;-81
2021/01/18 11:16:28;;;;;;;26.70;13.63;;;1.30;99.90;;;;;;4949200;28;20217;-80
2021/01/18 11:19:22;;;;;;;26.70;14.80;;;1.30;99.90;;;;;;4980948;28;20183;-79
2021/01/18 11:21:47;;;;;;;30.75;14.18;;;1.30;99.90;;;;;;4947188;28;20998;-80
2021/01/18 11:24:13;;;;;;;25.83;16.50;;;1.30;99.90;;;;;;4962714;28;20191;-79
2021/01/18 11:26:38;;;;;;;26.87;16.33;;;1.40;99.90;;;;;;4964439;28;20199;-79
2021/01/18 11:29:04;;;;;;;31.97;15.80;;;1.40;99.90;;;;;;4947092;28;20199;-80
2021/01/18 11:31:30;;;;;;;29.73;15.70;;;1.40;99.90;;;;;;4980040;28;20582;-81
2021/01/18 11:33:55;;;;;;;27.67;14.60;;;1.40;99.90;;;;;;4943764;29;20176;-80
2021/01/18 11:36:27;;;;;;;33.53;15.23;;;1.40;99.90;;;;;;4949400;28;20230;-79
2021/01/18 11:38:53;;;;;;;30.63;15.82;;;1.50;99.90;;;;;;4973383;28;20197;-80
2021/01/18 11:41:18;;;;;;;33.03;18.27;;;1.50;99.90;;;;;;4978097;28;20266;-80
2021/01/18 11:43:44;;;;;;;29.13;13.87;;;1.50;99.90;;;;;;4980083;28;20466;-79
2021/01/18 11:46:16;;;;;;;30.13;12.60;;;1.50;99.90;;;;;;4963422;28;20309;-80
2021/01/18 11:48:42;;;;;;;27.13;15.13;;;1.50;99.90;;;;;;4981532;28;20266;-80
2021/01/18 11:51:08;;;;;;;32.58;15.88;;;1.50;99.90;;;;;;4979104;28;20175;-80
2021/01/18 11:53:34;;;;;;;32.53;15.70;;;1.50;99.90;;;;;;4963327;28;20179;-80
2021/01/18 11:56:00;;;;;;;31.97;15.10;;;1.50;99.90;;;;;;4986974;28;20199;-80
2021/01/18 11:58:26;;;;;;;28.27;12.47;;;1.50;99.90;;;;;;4979014;28;20458;-80
2021/01/18 12:00:51;;;;;;;40.47;16.50;;;1.50;99.90;;;;;;4979544;28;20493;-82
2021/01/18 12:03:25;;;;;;;29.47;14.73;;;1.50;99.90;;;;;;4979798;28;20183;-79
2021/01/18 12:05:50;;;;;;;34.83;16.48;;;1.50;99.90;;;;;;4964582;28;20466;-79
2021/01/18 12:08:16;;;;;;;33.37;18.20;;;1.60;99.90;;;;;;4947425;28;20615;-80
2021/01/18 12:10:42;;;;;;;30.63;15.53;;;1.60;99.90;;;;;;4964159;28;20965;-79
2021/01/18 12:13:08;;;;;;;35.97;15.50;;;1.50;99.90;;;;;;4983016;28;20175;-80
2021/01/18 12:16:16;;;;;;;27.92;14.23;;;1.50;99.90;;;;;;4963971;28;20222;-80
2021/01/18 12:18:42;;;;;;;31.25;14.90;;;1.60;99.90;;;;;;4951526;28;20183;-81
2021/01/18 12:21:07;;;;;;;34.70;17.67;;;1.60;99.90;;;;;;4967143;28;20647;-80
2021/01/18 12:23:33;;;;;;;26.13;14.53;;;1.60;99.90;;;;;;4966780;28;20188;-81
2021/01/18 12:25:59;;;;;;;31.67;16.40;;;1.60;99.90;;;;;;4951318;28;20275;-80
2021/01/18 12:28:24;;;;;;;35.57;15.30;;;1.60;99.90;;;;;;4966563;28;20285;-80
2021/01/18 12:30:50;;;;;;;33.37;15.00;;;1.70;99.90;;;;;;4967956;28;20579;-80
2021/01/18 12:33:15;;;;;;;30.20;17.03;;;1.70;99.90;;;;;;4962316;28;20560;-80
2021/01/18 12:35:41;;;;;;;31.97;16.13;;;1.70;99.90;;;;;;4969349;28;20195;-80
2021/01/18 12:38:07;;;;;;;28.93;16.10;;;1.80;99.90;;;;;;4950393;28;20197;-80
2021/01/18 12:40:32;;;;;;;27.20;14.53;;;1.70;99.90;;;;;;4983180;28;20178;-80
2021/01/18 12:42:58;;;;;;;29.63;14.17;;;1.80;99.90;;;;;;4964918;28;20622;-81
2021/01/18 12:45:24;;;;;;;39.13;16.30;;;1.80;99.90;;;;;;4965840;28;20456;-81
2021/01/18 12:47:49;;;;;;;37.63;17.60;;;1.90;99.90;;;;;;4982144;28;20179;-80
2021/01/18 12:50:15;;;;;;;24.00;14.77;;;1.90;99.90;;;;;;4982162;28;20215;-80
2021/01/18 12:52:44;;;;;;;29.03;15.60;;;1.90;99.90;;;;;;4948610;28;20182;-80
2021/01/18 12:55:11;;;;;;;32.83;13.48;;;1.90;99.90;;;;;;4980361;28;20199;-81